Time;durP1;ratioP1;P1;durP2;ratioP2;P2;SDS_P1;SDS_P2;PMS_P1;PMS_P2;Temp;Humidity;BMP_temperature;BMP_pressure;BME280_temperature;BME280_humidity;BME280_pressure;Samples;Min_cycle;Max_cycle;Signal;HPM_P1;HPM_P2
2022/01/18 00:01:21;;;;;;;41.60;11.48;;;0.30;99.90;;;;;;4984040;28;20495;-76
2022/01/18 00:03:50;;;;;;;47.75;12.43;;;0.30;99.90;;;;;;4993789;28;20521;-76
2022/01/18 00:06:18;;;;;;;37.72;13.15;;;0.20;99.90;;;;;;4998248;28;20042;-76
2022/01/18 00:08:47;;;;;;;43.13;11.68;;;0.20;99.90;;;;;;4984114;28;20051;-76
2022/01/18 00:11:20;;;;;;;44.50;12.73;;;0.20;99.90;;;;;;4994461;28;20609;-76
2022/01/18 00:13:56;;;;;;;34.60;11.85;;;0.20;99.90;;;;;;4997987;28;20545;-76
2022/01/18 00:16:31;;;;;;;48.55;12.73;;;0.20;99.90;;;;;;5004593;28;20042;-76
2022/01/18 00:19:06;;;;;;;45.63;12.07;;;0.10;99.90;;;;;;4991731;28;20046;-75
2022/01/18 00:24:07;;;;;;;44.15;12.25;;;0.10;99.90;;;;;;4988664;28;20072;-75
2022/01/18 00:26:34;;;;;;;35.75;12.43;;;0.10;99.90;;;;;;4993976;28;20057;-75
2022/01/18 00:29:11;;;;;;;44.88;12.30;;;0.10;99.90;;;;;;4981775;28;20057;-75
2022/01/18 00:31:47;;;;;;;38.28;11.82;;;0.10;99.90;;;;;;4966646;28;20047;-74
2022/01/18 00:37:11;;;;;;;39.25;11.10;;;0.10;99.90;;;;;;4983217;28;20524;-75
2022/01/18 00:39:40;;;;;;;42.25;11.75;;;0.20;99.90;;;;;;4967633;28;20043;-74
2022/01/18 00:42:09;;;;;;;29.17;10.57;;;0.10;99.90;;;;;;4974226;28;20038;-74
2022/01/18 00:44:38;;;;;;;38.50;11.25;;;0.00;99.90;;;;;;4988371;28;20062;-75
2022/01/18 00:47:06;;;;;;;40.00;11.48;;;0.10;99.90;;;;;;4987393;28;20069;-73
2022/01/18 00:49:40;;;;;;;38.83;10.77;;;0.10;99.90;;;;;;4996934;28;20050;-74
2022/01/18 00:52:08;;;;;;;34.88;10.68;;;0.00;99.90;;;;;;5004991;28;20049;-74
2022/01/18 00:54:42;;;;;;;35.72;10.38;;;0.00;99.90;;;;;;5008471;28;20355;-74
2022/01/18 00:57:10;;;;;;;39.05;10.90;;;0.10;99.90;;;;;;4999201;28;20045;-74
2022/01/18 00:59:40;;;;;;;;;;;0.00;99.90;;;;;;5009060;28;20061;-74
2022/01/18 01:02:15;;;;;;;37.25;10.60;;;0.00;99.90;;;;;;4990798;28;19928;-74
2022/01/18 01:04:48;;;;;;;36.15;10.88;;;0.10;99.90;;;;;;4991972;28;20466;-74
2022/01/18 01:07:21;;;;;;;30.42;10.50;;;0.10;99.90;;;;;;4976995;28;20695;-74
2022/01/18 01:09:50;;;;;;;38.42;10.80;;;0.00;99.90;;;;;;4999345;28;20054;-74
2022/01/18 01:12:20;;;;;;;37.60;9.65;;;0.00;99.90;;;;;;4985434;28;20555;-74
2022/01/18 01:14:51;;;;;;;41.08;10.93;;;0.00;99.90;;;;;;4969025;28;20054;-74
2022/01/18 01:44:24;;;;;;;32.90;9.88;;;0.00;99.90;;;;;;4985618;28;20292;-73
2022/01/18 01:46:52;;;;;;;33.75;9.65;;;-0.10;99.90;;;;;;4987067;28;20065;-73
2022/01/18 01:49:23;;;;;;;38.70;9.60;;;0.00;99.90;;;;;;4986265;28;20514;-74
2022/01/18 01:51:50;;;;;;;40.20;9.38;;;-0.10;99.90;;;;;;4986031;28;20046;-74
2022/01/18 01:54:18;;;;;;;35.08;8.98;;;-0.10;99.90;;;;;;4987856;28;20057;-73
2022/01/18 01:56:46;;;;;;;40.00;9.00;;;-0.10;99.90;;;;;;4986436;28;20065;-74
2022/01/18 01:59:14;;;;;;;41.80;9.20;;;0.00;99.90;;;;;;4986899;28;20416;-74
2022/01/18 02:01:45;;;;;;;24.83;8.65;;;0.00;99.90;;;;;;4969210;28;20057;-74
2022/01/18 02:04:16;;;;;;;36.20;8.68;;;-0.10;99.90;;;;;;4986026;28;20054;-73
2022/01/18 02:06:44;;;;;;;32.63;8.75;;;-0.10;99.90;;;;;;4987244;28;20050;-74
2022/01/18 02:09:14;;;;;;;25.88;9.35;;;-0.10;99.90;;;;;;4987709;28;20398;-73
2022/01/18 02:11:41;;;;;;;;;;;-0.10;99.90;;;;;;4987974;28;20054;-73
2022/01/18 02:14:15;;;;;;;;;;;-0.20;99.90;;;;;;4970270;28;19925;-73
2022/01/18 02:22:17;;;;;;;;;;;-0.20;99.90;;;;;;4986456;28;20047;-74
2022/01/18 02:24:45;;;;;;;37.97;8.73;;;-0.20;99.90;;;;;;4985701;28;19922;-74
2022/01/18 02:27:14;;;;;;;27.60;8.43;;;-0.20;99.90;;;;;;4986821;28;20395;-74
2022/01/18 02:29:42;;;;;;;30.17;8.77;;;-0.30;99.90;;;;;;4987053;28;20054;-75
2022/01/18 02:32:10;;;;;;;31.33;9.13;;;-0.30;99.90;;;;;;4986998;28;20769;-74
2022/01/18 02:34:38;;;;;;;24.70;8.18;;;-0.40;99.90;;;;;;4985577;28;20061;-74
2022/01/18 02:37:07;;;;;;;;;;;-0.40;99.90;;;;;;4985243;28;20337;-73
2022/01/18 02:39:35;;;;;;;30.85;8.70;;;-0.40;99.90;;;;;;4986836;28;20259;-73
2022/01/18 02:42:06;;;;;;;36.08;8.30;;;-0.50;99.90;;;;;;4985641;28;20434;-74
2022/01/18 02:44:35;;;;;;;29.48;9.02;;;-0.50;99.90;;;;;;4969188;28;20061;-74
2022/01/18 02:47:04;;;;;;;32.42;9.02;;;-0.50;99.90;;;;;;4986099;28;20061;-74
2022/01/18 02:49:33;;;;;;;28.77;8.57;;;-0.50;99.90;;;;;;4987678;28;20042;-73
2022/01/18 02:52:01;;;;;;;32.47;7.88;;;-0.50;99.90;;;;;;4986986;28;20053;-74
2022/01/18 02:54:29;;;;;;;25.35;8.75;;;-0.60;99.90;;;;;;4987338;28;20050;-73
2022/01/18 02:57:01;;;;;;;33.08;9.30;;;-0.60;99.90;;;;;;4970349;28;20057;-73
2022/01/18 02:59:35;;;;;;;27.40;9.27;;;-0.60;99.90;;;;;;4986174;28;20053;-73
2022/01/18 03:05:03;;;;;;;34.47;9.68;;;-0.60;99.90;;;;;;4987204;28;20057;-73
2022/01/18 03:07:31;;;;;;;34.22;9.07;;;-0.60;99.90;;;;;;4969904;28;20050;-72
2022/01/18 03:09:59;;;;;;;27.60;9.50;;;-0.60;99.90;;;;;;4987467;28;20062;-73
2022/01/18 03:12:27;;;;;;;36.13;9.18;;;-0.60;99.90;;;;;;4986241;28;20050;-73
2022/01/18 03:14:55;;;;;;;25.38;8.68;;;-0.60;99.90;;;;;;4986748;28;20482;-74
2022/01/18 03:17:23;;;;;;;28.67;8.77;;;-0.70;99.90;;;;;;4986926;28;20050;-73
2022/01/18 03:19:51;;;;;;;31.73;8.02;;;-0.60;99.90;;;;;;4986889;28;20046;-73
2022/01/18 03:22:18;;;;;;;32.83;8.25;;;-0.70;99.90;;;;;;4986730;28;20046;-74
2022/01/18 03:30:10;;;;;;;27.67;7.50;;;-0.60;99.90;;;;;;4985126;28;20057;-74
2022/01/18 03:32:39;;;;;;;28.52;7.60;;;-0.60;99.90;;;;;;4985218;28;20050;-74
2022/01/18 03:35:07;;;;;;;;;;;-0.70;99.90;;;;;;4985974;28;20059;-73
2022/01/18 03:37:36;;;;;;;24.88;6.88;;;-0.70;99.90;;;;;;4986601;28;19926;-73
2022/01/18 03:40:06;;;;;;;25.13;7.30;;;-0.70;99.90;;;;;;4986248;28;20053;-74
2022/01/18 03:42:41;;;;;;;24.92;7.65;;;-0.70;99.90;;;;;;4985157;28;20550;-74
2022/01/18 03:45:19;;;;;;;36.90;7.88;;;-0.70;99.90;;;;;;4985373;28;20054;-75
2022/01/18 03:47:47;;;;;;;25.75;7.68;;;-0.60;99.90;;;;;;4985541;28;20091;-73
2022/01/18 03:50:16;;;;;;;31.10;7.97;;;-0.70;99.90;;;;;;4985907;28;20550;-74
2022/01/18 03:52:47;;;;;;;26.30;8.20;;;-0.60;99.90;;;;;;4984989;28;20392;-74
2022/01/18 03:55:18;;;;;;;26.92;7.20;;;-0.70;99.90;;;;;;4986962;28;20389;-74
2022/01/18 03:57:47;;;;;;;28.15;7.18;;;-0.70;99.90;;;;;;4969109;28;20122;-74
2022/01/18 04:00:17;;;;;;;23.38;6.90;;;-0.70;99.90;;;;;;4986610;28;20061;-72
2022/01/18 04:02:46;;;;;;;29.67;7.32;;;-0.70;99.90;;;;;;4986010;28;20065;-73
2022/01/18 04:05:15;;;;;;;23.13;6.90;;;-0.70;99.90;;;;;;4986613;28;20833;-74
2022/01/18 04:07:43;;;;;;;;;;;-0.70;99.90;;;;;;4986988;28;20518;-73
2022/01/18 04:10:13;;;;;;;31.63;6.82;;;-0.80;99.90;;;;;;4986551;28;19925;-73
2022/01/18 04:12:41;;;;;;;21.02;6.90;;;-0.80;99.90;;;;;;4987438;28;20050;-75
2022/01/18 04:15:12;;;;;;;20.95;6.82;;;-0.80;99.90;;;;;;4986449;28;20407;-74
2022/01/18 04:31:24;;;;;;;32.10;8.68;;;-0.90;99.90;;;;;;4984062;28;20054;-74
2022/01/18 04:33:53;;;;;;;27.95;7.30;;;-1.00;99.90;;;;;;4988178;28;20458;-73
2022/01/18 04:36:21;;;;;;;30.90;7.45;;;-0.90;99.90;;;;;;4988414;28;20065;-73
2022/01/18 04:38:49;;;;;;;28.67;6.78;;;-0.90;99.90;;;;;;4988120;28;20042;-73
2022/01/18 04:41:24;;;;;;;25.10;7.65;;;-0.90;99.90;;;;;;4988291;28;20206;-72
2022/01/18 04:49:15;;;;;;;18.88;6.70;;;-1.00;99.90;;;;;;4988095;28;20046;-73
2022/01/18 04:51:44;;;;;;;25.23;6.03;;;-0.90;99.90;;;;;;4987936;28;20050;-73
2022/01/18 04:54:13;;;;;;;27.67;6.97;;;-1.00;99.90;;;;;;5004096;28;20085;-73
2022/01/18 04:59:10;;;;;;;;;;;-1.00;99.90;;;;;;4994876;28;20468;-74
2022/01/18 05:01:41;;;;;;;29.65;6.25;;;-1.00;99.90;;;;;;4988302;28;19922;-74
2022/01/18 05:04:09;;;;;;;25.67;6.82;;;-1.00;99.90;;;;;;4988112;28;20435;-74
2022/01/18 05:06:38;;;;;;;30.55;6.40;;;-1.00;99.90;;;;;;4988836;28;20049;-73
2022/01/18 05:09:10;;;;;;;27.45;6.20;;;-1.00;99.90;;;;;;4986399;28;20069;-74
2022/01/18 05:11:49;;;;;;;31.33;6.53;;;-1.00;99.90;;;;;;4987810;28;20046;-73
2022/01/18 05:14:34;;;;;;;25.33;6.07;;;-1.00;99.90;;;;;;4988102;28;20511;-73
2022/01/18 05:25:03;;;;;;;28.63;6.68;;;-0.80;99.90;;;;;;4987852;28;20042;-74
2022/01/18 05:27:31;;;;;;;26.70;5.63;;;-0.90;99.90;;;;;;4989079;28;20053;-73
2022/01/18 05:29:59;;;;;;;25.17;6.47;;;-0.80;99.90;;;;;;4988003;28;20061;-73
2022/01/18 05:32:26;;;;;;;22.38;5.97;;;-0.80;99.90;;;;;;4988775;28;20407;-74
2022/01/18 05:34:54;;;;;;;26.60;5.95;;;-0.80;99.90;;;;;;4987797;28;20058;-73
2022/01/18 05:37:22;;;;;;;18.42;5.05;;;-0.70;99.90;;;;;;4987505;28;20523;-74
2022/01/18 05:39:49;;;;;;;18.58;5.50;;;-0.70;99.90;;;;;;4987927;28;20046;-73
2022/01/18 05:42:17;;;;;;;23.85;5.47;;;-0.70;99.90;;;;;;4988118;28;20054;-73
2022/01/18 05:44:46;;;;;;;17.88;5.10;;;-0.70;99.90;;;;;;4988598;28;20081;-73
2022/01/18 05:47:13;;;;;;;20.35;4.78;;;-0.70;99.90;;;;;;4986992;28;20502;-74
2022/01/18 05:49:41;;;;;;;25.02;5.32;;;-0.70;99.90;;;;;;4971185;28;20058;-74
2022/01/18 05:52:09;;;;;;;;;;;-0.70;99.90;;;;;;4987217;28;20425;-74
2022/01/18 05:54:37;;;;;;;19.90;4.72;;;-0.70;99.90;;;;;;4986970;28;19926;-74
2022/01/18 05:57:05;;;;;;;21.60;4.50;;;-0.70;99.90;;;;;;4986785;28;20409;-74
2022/01/18 05:59:38;;;;;;;18.25;5.07;;;-0.70;99.90;;;;;;4985279;28;20050;-73
2022/01/18 06:02:16;;;;;;;24.38;4.97;;;-0.70;99.90;;;;;;4955212;28;20062;-73
2022/01/18 06:07:31;;;;;;;25.48;4.85;;;-0.80;99.90;;;;;;4983084;28;20423;-73
2022/01/18 06:09:59;;;;;;;16.48;4.90;;;-0.80;99.90;;;;;;4950615;28;20061;-73
2022/01/18 06:12:28;;;;;;;18.70;4.72;;;-0.80;99.90;;;;;;4983544;28;20054;-72
2022/01/18 06:14:55;;;;;;;19.92;4.35;;;-0.80;99.90;;;;;;4966753;28;20511;-72
2022/01/18 06:17:23;;;;;;;24.45;5.05;;;-0.80;99.90;;;;;;4968660;28;20050;-73
2022/01/18 06:19:52;;;;;;;25.55;5.10;;;-0.70;99.90;;;;;;4967045;28;20047;-72
2022/01/18 06:22:20;;;;;;;22.35;5.47;;;-0.80;99.90;;;;;;4966462;28;20050;-73
2022/01/18 06:24:48;;;;;;;15.98;4.88;;;-0.80;99.90;;;;;;4982686;28;20057;-72
2022/01/18 06:27:15;;;;;;;23.77;5.57;;;-0.80;99.90;;;;;;4976689;28;20065;-72
2022/01/18 06:29:43;;;;;;;18.77;5.15;;;-0.90;99.90;;;;;;4985729;28;20403;-72
2022/01/18 06:32:11;;;;;;;19.92;5.32;;;-0.90;99.90;;;;;;4988076;28;20073;-74
2022/01/18 06:34:39;;;;;;;20.58;5.63;;;-0.90;99.90;;;;;;4986666;28;20050;-74
2022/01/18 06:37:07;;;;;;;26.30;5.57;;;-1.00;99.90;;;;;;4984690;28;20073;-73
2022/01/18 06:39:35;;;;;;;14.55;5.72;;;-1.00;99.90;;;;;;4969517;28;20050;-75
2022/01/18 06:42:12;;;;;;;21.63;5.88;;;-1.00;99.90;;;;;;4987038;28;20057;-73
2022/01/18 06:44:40;;;;;;;22.10;5.60;;;-1.00;99.90;;;;;;4969533;28;20368;-72
2022/01/18 06:47:08;;;;;;;24.27;5.80;;;-1.00;99.90;;;;;;4986101;28;20047;-73
2022/01/18 06:49:36;;;;;;;27.45;6.07;;;-1.00;99.90;;;;;;4985575;28;20054;-73
2022/01/18 06:52:04;;;;;;;18.33;5.35;;;-0.90;99.90;;;;;;4985271;28;20061;-72
2022/01/18 06:54:32;;;;;;;15.10;5.05;;;-0.90;99.90;;;;;;4985845;28;20046;-73
2022/01/18 06:57:00;;;;;;;29.30;5.95;;;-0.90;99.90;;;;;;4968866;28;20058;-72
2022/01/18 06:59:27;;;;;;;23.92;5.68;;;-0.80;99.90;;;;;;4985451;28;20042;-72
2022/01/18 07:01:55;;;;;;;25.08;5.63;;;-0.80;99.90;;;;;;4985143;28;20904;-73
2022/01/18 07:04:23;;;;;;;20.27;5.80;;;-0.80;99.90;;;;;;4986645;28;20054;-73
2022/01/18 07:06:51;;;;;;;19.25;5.82;;;-0.80;99.90;;;;;;4985522;28;20042;-74
2022/01/18 07:09:23;;;;;;;23.65;5.00;;;-0.80;99.90;;;;;;4969585;28;20066;-73
2022/01/18 07:11:56;;;;;;;16.98;4.63;;;-0.80;99.90;;;;;;4985631;28;20065;-73
2022/01/18 07:14:24;;;;;;;14.85;4.85;;;-0.80;99.90;;;;;;4987032;28;20050;-73
2022/01/18 07:16:52;;;;;;;18.98;5.80;;;-0.80;99.90;;;;;;4969272;28;20059;-72
2022/01/18 07:19:19;;;;;;;19.02;5.30;;;-0.90;99.90;;;;;;4986657;28;20038;-73
2022/01/18 07:21:47;;;;;;;17.83;4.88;;;-0.90;99.90;;;;;;4986252;28;20443;-73
2022/01/18 07:24:18;;;;;;;16.55;5.05;;;-0.90;99.90;;;;;;4986498;28;20050;-73
2022/01/18 07:26:46;;;;;;;23.80;5.90;;;-1.00;99.90;;;;;;5001574;28;20074;-73
2022/01/18 07:29:14;;;;;;;21.50;5.85;;;-1.00;99.90;;;;;;4984074;28;20053;-73
2022/01/18 07:31:42;;;;;;;27.45;6.28;;;-1.00;99.90;;;;;;4986441;28;20495;-74
2022/01/18 07:34:14;;;;;;;26.85;7.10;;;-1.00;99.90;;;;;;4952253;28;20058;-73
2022/01/18 07:36:41;;;;;;;30.73;7.05;;;-0.90;99.90;;;;;;4986098;28;20053;-73
2022/01/18 07:39:10;;;;;;;26.08;6.63;;;-0.90;99.90;;;;;;4972163;28;20049;-74
2022/01/18 07:41:38;;;;;;;34.92;7.32;;;-0.90;99.90;;;;;;4994925;28;20532;-72
2022/01/18 07:44:06;;;;;;;28.50;7.05;;;-0.80;99.90;;;;;;5001824;28;20050;-72
2022/01/18 07:46:34;;;;;;;32.20;7.60;;;-0.70;99.90;;;;;;4992425;28;20049;-73
2022/01/18 07:49:02;;;;;;;32.90;6.82;;;-0.70;99.90;;;;;;4967028;28;20053;-74
2022/01/18 07:51:30;;;;;;;;;;;-0.70;99.90;;;;;;4998303;28;20049;-73
2022/01/18 07:53:58;;;;;;;23.92;6.05;;;-0.60;99.90;;;;;;5005863;28;20270;-74
2022/01/18 07:56:25;;;;;;;28.25;7.00;;;-0.60;99.90;;;;;;4983925;28;20054;-74
2022/01/18 07:58:53;;;;;;;33.92;7.10;;;-0.60;99.90;;;;;;5007714;28;20050;-75
2022/01/18 08:01:21;;;;;;;21.40;6.90;;;-0.60;99.90;;;;;;5007573;28;20153;-74
2022/01/18 08:03:49;;;;;;;22.52;6.75;;;-0.50;99.90;;;;;;4989570;28;20047;-75
2022/01/18 08:06:17;;;;;;;18.08;5.88;;;-0.50;99.90;;;;;;5007448;28;20510;-74
2022/01/18 08:08:45;;;;;;;23.27;6.47;;;-0.50;99.90;;;;;;5006174;28;20482;-73
2022/01/18 08:11:12;;;;;;;21.48;6.53;;;-0.50;99.90;;;;;;5002500;28;20434;-73
2022/01/18 08:13:47;;;;;;;24.27;7.00;;;-0.50;99.90;;;;;;5007764;28;20038;-74
2022/01/18 08:18:51;;;;;;;29.88;7.78;;;-0.50;99.90;;;;;;4986980;28;20050;-74
2022/01/18 08:21:20;;;;;;;35.25;8.30;;;-0.40;99.90;;;;;;4987327;28;20046;-73
2022/01/18 08:23:48;;;;;;;35.47;8.05;;;-0.40;99.90;;;;;;5006298;28;20720;-72
2022/01/18 08:26:16;;;;;;;;;;;-0.40;99.90;;;;;;5006471;28;20606;-72
2022/01/18 08:28:46;;;;;;;31.60;7.38;;;-0.40;99.90;;;;;;4988230;28;20290;-72
2022/01/18 08:31:14;;;;;;;32.08;8.00;;;-0.30;99.90;;;;;;4988279;28;20050;-74
2022/01/18 08:33:41;;;;;;;;;;;-0.30;99.90;;;;;;4992681;28;20474;-72
2022/01/18 08:36:09;;;;;;;34.47;7.90;;;-0.30;99.90;;;;;;5008146;28;20370;-72
2022/01/18 08:38:39;;;;;;;27.30;8.77;;;-0.30;99.90;;;;;;4999342;28;20498;-73
2022/01/18 08:41:07;;;;;;;28.25;9.15;;;-0.30;99.90;;;;;;5006695;28;20407;-73
2022/01/18 08:43:37;;;;;;;24.73;9.23;;;-0.20;99.90;;;;;;4987972;28;20046;-73
2022/01/18 08:46:05;;;;;;;22.25;8.82;;;-0.20;99.90;;;;;;4987304;28;20144;-73
2022/01/18 08:48:34;;;;;;;34.55;9.60;;;-0.10;99.90;;;;;;4998968;28;20049;-75
2022/01/18 08:51:03;;;;;;;29.95;9.38;;;-0.10;99.90;;;;;;5001411;28;20487;-74
2022/01/18 08:53:30;;;;;;;;;;;0.00;99.90;;;;;;5003229;28;20072;-75
2022/01/18 08:55:58;;;;;;;27.42;9.27;;;0.00;99.90;;;;;;5023299;28;19921;-76
2022/01/18 08:58:26;;;;;;;20.40;8.82;;;0.10;99.90;;;;;;5004461;28;20049;-75
2022/01/18 09:00:54;;;;;;;27.50;9.73;;;0.20;99.90;;;;;;4988091;28;20069;-75
2022/01/18 09:03:22;;;;;;;;;;;0.20;99.90;;;;;;4969991;28;20051;-75
2022/01/18 09:05:51;;;;;;;32.13;9.27;;;0.30;99.90;;;;;;4999656;28;19932;-78
2022/01/18 09:08:21;;;;;;;31.85;9.65;;;0.40;99.90;;;;;;5005101;28;20056;-77
2022/01/18 09:10:50;;;;;;;32.85;9.63;;;0.40;99.90;;;;;;4996148;28;20049;-76
2022/01/18 09:13:18;;;;;;;29.33;9.40;;;0.50;99.90;;;;;;5003127;28;20046;-77
2022/01/18 09:15:46;;;;;;;;;;;0.60;99.90;;;;;;4997016;28;20053;-75
2022/01/18 09:18:13;;;;;;;24.67;8.40;;;0.60;99.90;;;;;;4987118;28;19926;-76
2022/01/18 09:20:41;;;;;;;21.05;8.43;;;0.70;99.90;;;;;;4993755;28;20038;-77
2022/01/18 09:23:10;;;;;;;32.28;9.20;;;0.70;99.90;;;;;;5003871;28;20400;-76
2022/01/18 09:25:38;;;;;;;27.05;9.48;;;0.80;99.90;;;;;;4995913;28;20042;-77
2022/01/18 09:28:06;;;;;;;;;;;0.90;99.90;;;;;;5000614;28;20050;-79
2022/01/18 09:30:36;;;;;;;23.73;8.88;;;1.00;99.90;;;;;;4989338;28;19929;-78
2022/01/18 09:33:06;;;;;;;28.90;9.57;;;1.10;99.90;;;;;;5006228;28;20050;-78
2022/01/18 09:35:38;;;;;;;25.35;9.48;;;1.10;99.90;;;;;;5007447;28;20069;-78
2022/01/18 09:38:06;;;;;;;28.55;9.48;;;1.20;99.90;;;;;;5005442;28;20042;-77
2022/01/18 09:40:39;;;;;;;29.50;10.23;;;1.30;99.90;;;;;;5005564;28;20053;-75
2022/01/18 09:43:14;;;;;;;36.00;11.15;;;1.40;99.90;;;;;;4987323;28;20542;-77
2022/01/18 09:45:45;;;;;;;32.97;10.77;;;1.50;99.90;;;;;;5004756;28;20502;-77
2022/01/18 09:48:14;;;;;;;31.45;10.63;;;1.70;99.90;;;;;;5007246;28;20065;-76
2022/01/18 09:50:44;;;;;;;32.05;10.23;;;1.70;99.90;;;;;;4989223;28;20038;-76
2022/01/18 09:53:12;;;;;;;33.30;9.95;;;1.80;99.90;;;;;;5005405;28;20410;-74
2022/01/18 09:55:41;;;;;;;37.00;11.75;;;1.80;99.90;;;;;;5005377;28;20076;-74
2022/01/18 09:58:09;;;;;;;28.15;12.48;;;1.90;99.90;;;;;;4998332;28;20042;-74
2022/01/18 10:00:40;;;;;;;34.17;13.70;;;2.00;99.90;;;;;;4999278;28;20053;-73
2022/01/18 10:03:43;;;;;;;29.83;12.82;;;2.10;99.90;;;;;;4981731;28;20054;-73
2022/01/18 10:06:11;;;;;;;33.50;12.43;;;2.20;99.90;;;;;;4997058;28;20062;-75
2022/01/18 10:08:40;;;;;;;;;;;2.40;99.90;;;;;;4986712;28;20050;-74
2022/01/18 10:11:16;;;;;;;31.98;13.80;;;2.50;99.90;;;;;;5001320;28;19925;-74
2022/01/18 10:13:46;;;;;;;46.60;16.75;;;2.60;99.90;;;;;;4998647;28;20046;-75
2022/01/18 10:16:20;;;;;;;49.25;16.52;;;2.80;99.90;;;;;;5003353;28;20045;-74
2022/01/18 10:19:02;;;;;;;43.15;16.73;;;2.90;99.90;;;;;;5004586;28;20058;-74
2022/01/18 10:21:46;;;;;;;55.20;21.77;;;3.00;99.90;;;;;;5003321;28;20049;-74
2022/01/18 10:24:26;;;;;;;58.30;25.55;;;3.10;99.90;;;;;;4994127;28;20045;-72
2022/01/18 10:26:57;;;;;;;49.55;20.73;;;3.30;99.90;;;;;;4998220;28;20050;-82
2022/01/18 10:29:32;;;;;;;52.50;20.65;;;3.40;99.90;;;;;;4979300;28;20065;-81
2022/01/18 10:32:11;;;;;;;47.60;19.08;;;3.50;99.90;;;;;;4984083;28;20072;-77
2022/01/18 10:35:04;;;;;;;51.47;20.60;;;3.70;99.90;;;;;;5000813;28;20077;-76
2022/01/18 10:37:31;;;;;;;49.80;20.75;;;3.90;99.90;;;;;;4984329;28;20062;-78
2022/01/18 10:40:05;;;;;;;63.75;22.17;;;4.00;99.90;;;;;;4986625;28;20042;-78
2022/01/18 10:42:44;;;;;;;54.33;19.40;;;4.20;99.90;;;;;;4987253;28;20050;-76
2022/01/18 10:45:31;;;;;;;54.58;18.98;;;4.40;99.90;;;;;;4984645;28;20050;-78
2022/01/18 10:48:13;;;;;;;52.33;20.63;;;4.40;99.90;;;;;;4985398;28;20042;-79
2022/01/18 10:50:44;;;;;;;60.47;20.45;;;4.50;99.90;;;;;;4986801;28;20054;-76
2022/01/18 10:53:17;;;;;;;54.15;18.95;;;4.60;99.90;;;;;;4968775;28;20077;-77
2022/01/18 10:55:48;;;;;;;52.03;20.05;;;4.60;99.90;;;;;;4983899;28;20061;-74
2022/01/18 10:58:18;;;;;;;62.78;22.55;;;4.70;99.90;;;;;;4982830;28;20061;-73
2022/01/18 11:00:47;;;;;;;54.35;21.20;;;4.70;99.90;;;;;;4968431;28;20054;-74
2022/01/18 11:03:15;;;;;;;55.72;20.85;;;4.70;99.90;;;;;;4972903;28;20597;-73
2022/01/18 11:05:46;;;;;;;56.33;20.92;;;4.80;99.90;;;;;;4985123;28;20050;-73
2022/01/18 11:08:18;;;;;;;60.95;22.45;;;4.80;99.90;;;;;;4984330;28;20176;-72
2022/01/18 11:10:47;;;;;;;57.60;22.80;;;4.90;99.90;;;;;;4998997;28;20046;-73
2022/01/18 11:13:36;;;;;;;54.22;22.63;;;4.90;99.90;;;;;;5004258;28;20045;-73
2022/01/18 11:16:12;;;;;;;57.60;22.05;;;5.00;99.90;;;;;;4984296;28;20407;-72
2022/01/18 11:18:45;;;;;;;55.63;21.20;;;5.00;99.90;;;;;;4986384;28;20069;-71
2022/01/18 11:21:18;;;;;;;53.13;20.23;;;5.00;99.90;;;;;;4986112;28;20295;-74
2022/01/18 11:23:47;;;;;;;48.45;20.63;;;5.00;99.90;;;;;;4986161;28;20062;-71
2022/01/18 11:26:17;;;;;;;47.85;19.77;;;5.10;99.90;;;;;;4998464;28;20034;-71
2022/01/18 11:28:46;;;;;;;44.17;18.92;;;5.20;99.90;;;;;;4982616;28;20054;-72
2022/01/18 11:31:14;;;;;;;43.55;18.33;;;5.10;99.90;;;;;;4986178;28;20053;-72
2022/01/18 11:33:53;;;;;;;41.72;19.48;;;5.20;99.90;;;;;;4986361;28;20065;-73
2022/01/18 11:36:25;;;;;;;57.50;22.17;;;5.20;99.90;;;;;;4985040;28;20066;-72
2022/01/18 11:38:56;;;;;;;51.63;20.25;;;5.30;99.90;;;;;;4985347;28;20093;-72
2022/01/18 11:41:31;;;;;;;45.60;21.35;;;5.40;99.90;;;;;;4985472;28;20499;-73
2022/01/18 11:44:19;;;;;;;48.90;20.65;;;5.40;99.90;;;;;;4984426;28;20050;-73
2022/01/18 11:46:50;;;;;;;48.38;21.13;;;5.50;99.90;;;;;;4986256;28;20054;-73
2022/01/18 11:49:23;;;;;;;48.88;20.92;;;5.60;99.90;;;;;;4986273;28;20348;-76
2022/01/18 11:52:10;;;;;;;40.25;19.45;;;5.70;99.90;;;;;;4968776;28;20059;-77
2022/01/18 11:57:27;;;;;;;;;;;5.80;99.90;;;;;;4977639;28;20388;-74
2022/01/18 12:00:17;;;;;;;40.15;19.35;;;5.90;99.90;;;;;;4984644;28;19921;-74
2022/01/18 12:02:48;;;;;;;41.33;18.40;;;6.00;99.90;;;;;;5001059;28;20049;-73
2022/01/18 12:05:21;;;;;;;48.38;20.88;;;6.20;99.90;;;;;;4999864;28;20064;-73
2022/01/18 12:08:01;;;;;;;40.65;18.88;;;6.50;99.90;;;;;;5018596;28;20043;-74
2022/01/18 12:10:33;;;;;;;37.90;18.35;;;6.80;99.90;;;;;;4990266;28;20429;-75
2022/01/18 12:13:05;;;;;;;31.88;15.85;;;7.50;99.90;;;;;;4999955;28;20068;-74
2022/01/18 12:15:33;;;;;;;33.97;15.63;;;8.30;99.90;;;;;;4999927;28;20050;-74
2022/01/18 12:18:04;;;;;;;34.75;16.95;;;9.20;99.90;;;;;;4983437;28;20053;-74
2022/01/18 12:20:32;;;;;;;29.50;15.77;;;10.10;99.90;;;;;;4985763;28;20418;-73
2022/01/18 12:23:01;;;;;;;28.48;13.13;;;10.90;99.90;;;;;;4993079;28;20046;-74
2022/01/18 12:25:30;;;;;;;;;;;11.60;99.90;;;;;;4996178;28;20062;-73
2022/01/18 12:28:02;;;;;;;24.85;13.50;;;12.10;99.90;;;;;;4992267;28;19928;-74
2022/01/18 12:30:43;;;;;;;22.67;11.70;;;12.60;99.90;;;;;;5004270;28;20054;-74
2022/01/18 12:33:18;;;;;;;27.17;13.00;;;13.10;99.90;;;;;;5019597;28;20478;-74
2022/01/18 12:35:47;;;;;;;23.48;13.05;;;13.60;99.90;;;;;;4999298;28;20557;-73
2022/01/18 12:38:23;;;;;;;29.35;12.70;;;14.00;99.90;;;;;;4983601;28;20054;-74
2022/01/18 12:40:53;;;;;;;22.10;12.18;;;14.40;99.90;;;;;;4987742;28;20059;-74
2022/01/18 12:46:27;;;;;;;29.27;12.15;;;14.70;99.90;;;;;;5008002;28;20049;-73
2022/01/18 12:49:03;;;;;;;27.48;11.95;;;14.90;99.90;;;;;;4990892;28;20053;-75
2022/01/18 12:51:31;;;;;;;27.15;11.45;;;15.20;99.90;;;;;;4999357;28;20069;-74
2022/01/18 12:53:59;;;;;;;25.48;10.82;;;15.30;99.90;;;;;;4993683;28;20056;-75
2022/01/18 12:56:27;;;;;;;24.88;11.63;;;15.40;99.90;;;;;;4971717;28;20053;-75
2022/01/18 12:58:57;;;;;;;28.58;11.10;;;15.50;99.90;;;;;;4971589;28;20062;-74
2022/01/18 13:01:27;;;;;;;22.83;10.05;;;15.60;99.90;;;;;;4986683;28;20050;-74
2022/01/18 13:03:56;;;;;;;26.13;9.63;;;15.60;99.90;;;;;;4991056;28;20522;-75
2022/01/18 13:06:27;;;;;;;30.25;14.35;;;15.40;99.90;;;;;;4992367;28;20050;-73
2022/01/18 13:09:00;;;;;;;29.77;11.90;;;15.20;99.90;;;;;;4986849;28;20050;-75
2022/01/18 13:11:31;;;;;;;28.58;11.23;;;15.00;99.90;;;;;;4994756;28;20574;-74
2022/01/18 13:14:12;;;;;;;24.52;7.93;;;14.70;99.90;;;;;;5001669;28;20046;-74
2022/01/18 13:27:40;;;;;;;30.90;9.63;;;14.10;99.90;;;;;;4996844;28;20434;-74
2022/01/18 13:30:16;;;;;;;26.60;10.13;;;14.00;99.90;;;;;;5002824;28;20045;-74
2022/01/18 13:32:45;;;;;;;30.85;11.10;;;13.90;99.90;;;;;;4996733;28;20042;-75
2022/01/18 13:35:15;;;;;;;31.83;13.02;;;13.50;99.90;;;;;;4988296;28;20057;-75
2022/01/18 13:37:43;;;;;;;32.60;12.10;;;13.10;99.90;;;;;;4987262;28;20076;-75
2022/01/18 13:40:15;;;;;;;30.38;12.55;;;12.60;99.90;;;;;;4986832;28;20051;-75
2022/01/18 13:42:49;;;;;;;32.00;12.60;;;12.30;99.90;;;;;;4988145;28;20047;-83
2022/01/18 13:45:24;;;;;;;30.35;13.00;;;12.00;99.90;;;;;;4993081;28;20153;-78
2022/01/18 13:48:01;;;;;;;34.78;13.52;;;11.80;99.90;;;;;;5005033;28;20060;-76
2022/01/18 13:50:43;;;;;;;35.47;13.05;;;11.70;99.90;;;;;;5020538;28;20701;-74
2022/01/18 13:53:18;;;;;;;29.48;10.30;;;11.50;99.90;;;;;;4991382;28;20054;-77
2022/01/18 13:55:51;;;;;;;33.58;11.32;;;11.30;99.90;;;;;;4984471;28;20061;-74
2022/01/18 13:58:28;;;;;;;29.67;9.93;;;11.10;99.90;;;;;;4997254;28;20050;-72
2022/01/18 14:01:17;;;;;;;29.95;10.32;;;10.80;99.90;;;;;;4995985;28;20391;-73
2022/01/18 14:03:49;;;;;;;32.55;11.18;;;10.50;99.90;;;;;;4986217;28;20046;-72
2022/01/18 14:06:18;;;;;;;30.55;10.13;;;10.20;99.90;;;;;;4953860;28;20061;-74
2022/01/18 14:08:51;;;;;;;32.33;10.68;;;9.90;99.90;;;;;;4987842;28;20057;-75
2022/01/18 14:11:26;;;;;;;34.20;10.75;;;9.60;99.90;;;;;;5002430;28;20626;-73
2022/01/18 14:13:55;;;;;;;33.65;10.57;;;9.40;99.90;;;;;;4999962;28;20048;-77
2022/01/18 14:16:25;;;;;;;30.70;11.30;;;9.20;99.90;;;;;;4987339;28;20065;-71
2022/01/18 14:19:07;;;;;;;34.22;11.20;;;9.30;99.90;;;;;;4997161;28;20070;-73
2022/01/18 14:21:49;;;;;;;29.42;10.88;;;9.40;99.90;;;;;;4986086;28;20073;-73
2022/01/18 14:24:23;;;;;;;32.72;10.70;;;9.60;99.90;;;;;;4970625;28;20046;-73
2022/01/18 14:26:51;;;;;;;36.25;11.13;;;9.60;99.90;;;;;;4986623;28;20065;-76
2022/01/18 14:29:27;;;;;;;33.10;11.07;;;9.50;99.90;;;;;;4983717;28;20046;-73
2022/01/18 14:32:10;;;;;;;33.03;10.48;;;9.40;99.90;;;;;;4984831;28;20074;-72
2022/01/18 14:34:49;;;;;;;33.72;11.70;;;9.30;99.90;;;;;;4986944;28;20046;-76
2022/01/18 14:37:18;;;;;;;34.90;11.40;;;9.20;99.90;;;;;;4994029;28;20043;-72
2022/01/18 14:40:01;;;;;;;30.70;11.35;;;9.10;99.90;;;;;;4986585;28;20058;-73